sensor_id;sensor_type;location;lat;lon;timestamp;P1;durP1;ratioP1;P2;durP2;ratioP2
40527;SDS011;26230;51.268;6.534;2024-02-26T00:00:01;2.1;;;1.1;;
40527;SDS011;26230;51.268;6.534;2024-02-26T00:10:01;2.1;;;1.1;;
40527;SDS011;26230;51.268;6.534;2024-02-26T00:20:02;4.7;;;1.8;;
40527;SDS011;26230;51.268;6.534;2024-02-26T00:30:00;6.4;;;3.8;;
40527;SDS011;26230;51.268;6.534;2024-02-26T00:40:00;6.4;;;3.8;;
40527;SDS011;26230;51.268;6.534;2024-02-26T00:50:01;3.7;;;1.5;;
40527;SDS011;26230;51.268;6.534;2024-02-26T01:00:01;3.3;;;1.4;;
40527;SDS011;26230;51.268;6.534;2024-02-26T01:10:00;3.3;;;1.4;;
40527;SDS011;26230;51.268;6.534;2024-02-26T01:20:00;3.2;;;1.0;;
40527;SDS011;26230;51.268;6.534;2024-02-26T01:30:00;3.1;;;1.3;;
40527;SDS011;26230;51.268;6.534;2024-02-26T01:40:03;3.1;;;1.3;;
40527;SDS011;26230;51.268;6.534;2024-02-26T01:50:00;2.1;;;1.1;;
40527;SDS011;26230;51.268;6.534;2024-02-26T02:00:00;2.7;;;1.1;;
40527;SDS011;26230;51.268;6.534;2024-02-26T02:10:00;2.7;;;1.1;;
40527;SDS011;26230;51.268;6.534;2024-02-26T02:20:03;3.6;;;1.3;;
40527;SDS011;26230;51.268;6.534;2024-02-26T02:30:01;19.7;;;18.3;;
40527;SDS011;26230;51.268;6.534;2024-02-26T02:40:00;19.7;;;18.3;;
40527;SDS011;26230;51.268;6.534;2024-02-26T02:50:00;19.9;;;18.6;;
40527;SDS011;26230;51.268;6.534;2024-02-26T03:00:03;19.2;;;18.0;;
40527;SDS011;26230;51.268;6.534;2024-02-26T03:10:00;19.2;;;18.0;;
40527;SDS011;26230;51.268;6.534;2024-02-26T03:20:00;19.8;;;18.6;;
40527;SDS011;26230;51.268;6.534;2024-02-26T03:30:00;20.8;;;19.5;;
40527;SDS011;26230;51.268;6.534;2024-02-26T03:40:01;20.8;;;19.5;;
40527;SDS011;26230;51.268;6.534;2024-02-26T03:50:00;20.9;;;19.3;;
40527;SDS011;26230;51.268;6.534;2024-02-26T04:00:01;20.5;;;19.2;;
40527;SDS011;26230;51.268;6.534;2024-02-26T04:10:08;20.5;;;19.2;;
40527;SDS011;26230;51.268;6.534;2024-02-26T04:20:03;21.8;;;20.5;;
40527;SDS011;26230;51.268;6.534;2024-02-26T04:30:00;22.5;;;21.0;;
40527;SDS011;26230;51.268;6.534;2024-02-26T04:40:01;22.5;;;21.0;;
40527;SDS011;26230;51.268;6.534;2024-02-26T04:50:00;21.1;;;19.8;;
40527;SDS011;26230;51.268;6.534;2024-02-26T05:00:00;20.6;;;19.4;;
40527;SDS011;26230;51.268;6.534;2024-02-26T05:10:03;20.6;;;19.4;;
40527;SDS011;26230;51.268;6.534;2024-02-26T05:20:00;22.1;;;20.6;;
40527;SDS011;26230;51.268;6.534;2024-02-26T05:30:00;23.6;;;21.9;;
40527;SDS011;26230;51.268;6.534;2024-02-26T05:40:00;23.6;;;21.9;;
40527;SDS011;26230;51.268;6.534;2024-02-26T05:50:02;23.0;;;21.5;;
40527;SDS011;26230;51.268;6.534;2024-02-26T06:00:03;23.5;;;22.0;;
40527;SDS011;26230;51.268;6.534;2024-02-26T06:10:01;23.5;;;22.0;;
40527;SDS011;26230;51.268;6.534;2024-02-26T06:20:01;24.0;;;22.4;;
40527;SDS011;26230;51.268;6.534;2024-02-26T06:30:02;24.0;;;22.3;;
40527;SDS011;26230;51.268;6.534;2024-02-26T06:40:03;24.0;;;22.3;;
40527;SDS011;26230;51.268;6.534;2024-02-26T06:50:03;23.4;;;21.9;;
40527;SDS011;26230;51.268;6.534;2024-02-26T07:00:03;23.5;;;22.0;;
40527;SDS011;26230;51.268;6.534;2024-02-26T07:10:03;23.5;;;22.0;;
40527;SDS011;26230;51.268;6.534;2024-02-26T07:20:00;23.4;;;21.9;;
40527;SDS011;26230;51.268;6.534;2024-02-26T07:30:01;24.2;;;22.7;;
40527;SDS011;26230;51.268;6.534;2024-02-26T07:40:01;24.2;;;22.7;;
40527;SDS011;26230;51.268;6.534;2024-02-26T07:50:02;24.6;;;22.9;;
40527;SDS011;26230;51.268;6.534;2024-02-26T08:00:01;24.0;;;22.2;;
40527;SDS011;26230;51.268;6.534;2024-02-26T08:10:00;24.0;;;22.2;;
40527;SDS011;26230;51.268;6.534;2024-02-26T08:20:01;23.5;;;21.9;;
40527;SDS011;26230;51.268;6.534;2024-02-26T08:30:01;23.7;;;22.1;;
40527;SDS011;26230;51.268;6.534;2024-02-26T08:40:06;23.7;;;22.1;;
40527;SDS011;26230;51.268;6.534;2024-02-26T08:50:02;23.7;;;22.0;;
40527;SDS011;26230;51.268;6.534;2024-02-26T09:00:01;23.4;;;21.9;;
40527;SDS011;26230;51.268;6.534;2024-02-26T09:10:00;23.4;;;21.9;;
40527;SDS011;26230;51.268;6.534;2024-02-26T09:20:02;24.3;;;22.7;;
40527;SDS011;26230;51.268;6.534;2024-02-26T09:30:00;25.3;;;23.6;;
40527;SDS011;26230;51.268;6.534;2024-02-26T09:40:00;25.3;;;23.6;;
40527;SDS011;26230;51.268;6.534;2024-02-26T09:50:02;24.6;;;23.0;;
40527;SDS011;26230;51.268;6.534;2024-02-26T10:00:05;24.9;;;23.2;;
40527;SDS011;26230;51.268;6.534;2024-02-26T10:10:02;24.9;;;23.2;;
40527;SDS011;26230;51.268;6.534;2024-02-26T10:20:18;24.6;;;22.7;;
40527;SDS011;26230;51.268;6.534;2024-02-26T10:30:24;25.2;;;23.6;;
40527;SDS011;26230;51.268;6.534;2024-02-26T10:40:03;25.2;;;23.6;;
40527;SDS011;26230;51.268;6.534;2024-02-26T10:50:02;25.9;;;24.0;;
40527;SDS011;26230;51.268;6.534;2024-02-26T11:00:04;26.5;;;24.5;;
40527;SDS011;26230;51.268;6.534;2024-02-26T11:10:01;26.5;;;24.5;;
40527;SDS011;26230;51.268;6.534;2024-02-26T11:20:02;27.4;;;25.5;;
40527;SDS011;26230;51.268;6.534;2024-02-26T11:30:02;27.3;;;25.4;;
40527;SDS011;26230;51.268;6.534;2024-02-26T11:40:01;27.3;;;25.4;;
40527;SDS011;26230;51.268;6.534;2024-02-26T12:20:09;29.3;;;27.1;;
40527;SDS011;26230;51.268;6.534;2024-02-26T12:30:03;30.0;;;27.7;;
40527;SDS011;26230;51.268;6.534;2024-02-26T12:40:00;30.0;;;27.7;;
40527;SDS011;26230;51.268;6.534;2024-02-26T12:50:07;29.0;;;26.6;;
40527;SDS011;26230;51.268;6.534;2024-02-26T13:00:01;28.8;;;26.7;;
40527;SDS011;26230;51.268;6.534;2024-02-26T13:10:01;28.8;;;26.7;;
40527;SDS011;26230;51.268;6.534;2024-02-26T13:20:03;30.9;;;28.1;;
40527;SDS011;26230;51.268;6.534;2024-02-26T13:30:12;30.8;;;28.3;;
40527;SDS011;26230;51.268;6.534;2024-02-26T13:40:08;30.8;;;28.3;;
40527;SDS011;26230;51.268;6.534;2024-02-26T13:50:02;30.8;;;28.3;;
40527;SDS011;26230;51.268;6.534;2024-02-26T14:00:01;31.9;;;28.9;;
40527;SDS011;26230;51.268;6.534;2024-02-26T14:10:01;31.9;;;28.9;;
40527;SDS011;26230;51.268;6.534;2024-02-26T14:20:02;29.6;;;27.3;;
40527;SDS011;26230;51.268;6.534;2024-02-26T14:30:03;26.8;;;25.0;;
40527;SDS011;26230;51.268;6.534;2024-02-26T14:40:03;26.8;;;25.0;;
40527;SDS011;26230;51.268;6.534;2024-02-26T14:50:01;27.5;;;25.4;;
40527;SDS011;26230;51.268;6.534;2024-02-26T15:00:00;26.6;;;24.5;;
40527;SDS011;26230;51.268;6.534;2024-02-26T15:10:01;26.6;;;24.5;;
40527;SDS011;26230;51.268;6.534;2024-02-26T15:20:01;25.8;;;24.0;;
40527;SDS011;26230;51.268;6.534;2024-02-26T15:30:03;25.7;;;23.9;;
40527;SDS011;26230;51.268;6.534;2024-02-26T15:40:00;25.7;;;23.9;;
40527;SDS011;26230;51.268;6.534;2024-02-26T15:50:01;25.8;;;24.0;;
40527;SDS011;26230;51.268;6.534;2024-02-26T16:00:05;25.2;;;23.4;;
40527;SDS011;26230;51.268;6.534;2024-02-26T16:10:03;25.2;;;23.4;;
40527;SDS011;26230;51.268;6.534;2024-02-26T16:20:03;25.7;;;23.7;;
40527;SDS011;26230;51.268;6.534;2024-02-26T16:30:00;26.9;;;25.0;;
40527;SDS011;26230;51.268;6.534;2024-02-26T16:40:12;26.9;;;25.0;;
40527;SDS011;26230;51.268;6.534;2024-02-26T16:50:01;28.6;;;26.3;;
40527;SDS011;26230;51.268;6.534;2024-02-26T17:00:03;29.3;;;26.9;;
40527;SDS011;26230;51.268;6.534;2024-02-26T17:10:00;29.3;;;26.9;;
40527;SDS011;26230;51.268;6.534;2024-02-26T17:20:04;29.9;;;27.5;;
40527;SDS011;26230;51.268;6.534;2024-02-26T17:30:01;29.9;;;27.5;;
40527;SDS011;26230;51.268;6.534;2024-02-26T17:40:01;29.9;;;27.5;;
40527;SDS011;26230;51.268;6.534;2024-02-26T17:50:00;30.3;;;27.8;;
40527;SDS011;26230;51.268;6.534;2024-02-26T18:00:01;30.7;;;28.0;;
40527;SDS011;26230;51.268;6.534;2024-02-26T18:10:01;30.7;;;28.0;;
40527;SDS011;26230;51.268;6.534;2024-02-26T18:20:03;30.1;;;27.7;;
40527;SDS011;26230;51.268;6.534;2024-02-26T18:30:00;28.4;;;26.3;;
40527;SDS011;26230;51.268;6.534;2024-02-26T18:40:01;28.4;;;26.3;;
40527;SDS011;26230;51.268;6.534;2024-02-26T18:50:01;29.9;;;27.6;;
40527;SDS011;26230;51.268;6.534;2024-02-26T19:00:00;31.0;;;28.5;;
40527;SDS011;26230;51.268;6.534;2024-02-26T19:10:00;31.0;;;28.5;;
40527;SDS011;26230;51.268;6.534;2024-02-26T19:20:01;31.1;;;28.5;;
40527;SDS011;26230;51.268;6.534;2024-02-26T19:30:04;30.7;;;28.1;;
40527;SDS011;26230;51.268;6.534;2024-02-26T19:40:00;30.7;;;28.1;;
40527;SDS011;26230;51.268;6.534;2024-02-26T19:50:01;33.9;;;31.0;;
40527;SDS011;26230;51.268;6.534;2024-02-26T20:00:01;34.8;;;31.9;;
40527;SDS011;26230;51.268;6.534;2024-02-26T20:10:03;34.8;;;31.9;;
40527;SDS011;26230;51.268;6.534;2024-02-26T20:20:03;35.4;;;32.5;;
40527;SDS011;26230;51.268;6.534;2024-02-26T20:30:02;35.4;;;32.5;;
40527;SDS011;26230;51.268;6.534;2024-02-26T20:40:00;35.4;;;32.5;;
40527;SDS011;26230;51.268;6.534;2024-02-26T20:50:04;35.6;;;32.7;;
40527;SDS011;26230;51.268;6.534;2024-02-26T21:00:01;36.6;;;33.3;;
40527;SDS011;26230;51.268;6.534;2024-02-26T21:10:00;36.6;;;33.3;;
40527;SDS011;26230;51.268;6.534;2024-02-26T21:20:01;36.5;;;33.5;;
40527;SDS011;26230;51.268;6.534;2024-02-26T21:30:01;39.1;;;35.8;;
40527;SDS011;26230;51.268;6.534;2024-02-26T21:40:03;39.1;;;35.8;;
40527;SDS011;26230;51.268;6.534;2024-02-26T21:50:01;39.9;;;36.4;;
40527;SDS011;26230;51.268;6.534;2024-02-26T22:00:03;41.4;;;37.7;;
40527;SDS011;26230;51.268;6.534;2024-02-26T22:10:03;41.4;;;37.7;;
40527;SDS011;26230;51.268;6.534;2024-02-26T22:20:05;41.1;;;37.4;;
40527;SDS011;26230;51.268;6.534;2024-02-26T22:30:00;43.6;;;39.7;;
40527;SDS011;26230;51.268;6.534;2024-02-26T22:40:00;43.6;;;39.7;;
40527;SDS011;26230;51.268;6.534;2024-02-26T22:50:04;44.0;;;40.2;;
40527;SDS011;26230;51.268;6.534;2024-02-26T23:10:00;45.0;;;40.9;;
40527;SDS011;26230;51.268;6.534;2024-02-26T23:20:00;46.2;;;42.1;;
40527;SDS011;26230;51.268;6.534;2024-02-26T23:30:02;46.8;;;42.4;;
40527;SDS011;26230;51.268;6.534;2024-02-26T23:40:02;46.8;;;42.4;;
40527;SDS011;26230;51.268;6.534;2024-02-26T23:50:01;48.2;;;43.8;;
